createdAt,value
2023-05-26T00:00:32.379Z,1001.87
2023-05-26T00:01:32.574Z,1001.84
2023-05-26T00:02:32.497Z,1001.86
2023-05-26T00:03:32.502Z,1001.88
2023-05-26T00:04:32.471Z,1001.87
2023-05-26T00:05:32.426Z,1002.00
2023-05-26T00:06:32.546Z,1001.95
2023-05-26T00:07:32.441Z,1001.96
2023-05-26T00:08:32.574Z,1001.97
2023-05-26T00:09:32.529Z,1001.96
2023-05-26T00:10:32.465Z,1002.00
2023-05-26T00:11:32.506Z,1001.97
2023-05-26T00:12:32.509Z,1001.94
2023-05-26T00:13:32.556Z,1001.99
2023-05-26T00:14:32.540Z,1002.02
2023-05-26T00:15:32.586Z,1001.97
2023-05-26T00:16:32.623Z,1001.90
2023-05-26T00:17:32.586Z,1001.85
2023-05-26T00:18:32.581Z,1001.98
2023-05-26T00:19:32.669Z,1001.88
2023-05-26T00:20:32.640Z,1001.88
2023-05-26T00:21:32.620Z,1001.86
2023-05-26T00:22:32.616Z,1001.82
2023-05-26T00:23:32.627Z,1001.86
2023-05-26T00:24:32.657Z,1001.81
2023-05-26T00:25:32.653Z,1001.87
2023-05-26T00:26:32.680Z,1001.88
2023-05-26T00:27:32.701Z,1001.88
2023-05-26T00:28:32.710Z,1001.81
2023-05-26T00:29:32.721Z,1001.90
2023-05-26T00:31:01.219Z,1001.93
2023-05-26T00:32:00.054Z,1001.83
2023-05-26T00:33:00.012Z,1001.82
2023-05-26T00:33:59.976Z,1001.84
2023-05-26T00:35:00.013Z,1001.84
2023-05-26T00:35:59.968Z,1001.86
2023-05-26T00:37:00.026Z,1001.81
2023-05-26T00:37:59.950Z,1001.80
2023-05-26T00:38:59.943Z,1001.81
2023-05-26T00:39:59.952Z,1001.81
2023-05-26T00:40:59.940Z,1001.78
2023-05-26T00:41:59.931Z,1001.74
2023-05-26T00:42:59.938Z,1001.73
2023-05-26T00:43:59.944Z,1001.75
2023-05-26T00:44:59.997Z,1001.85
2023-05-26T00:45:59.980Z,1001.75
2023-05-26T00:47:00.029Z,1001.77
2023-05-26T00:47:59.995Z,1001.79
2023-05-26T00:48:59.949Z,1001.74
2023-05-26T00:49:59.973Z,1001.78
2023-05-26T00:50:59.956Z,1001.73
2023-05-26T00:51:59.963Z,1001.75
2023-05-26T00:52:59.937Z,1001.81
2023-05-26T00:53:59.978Z,1001.78
2023-05-26T00:54:59.960Z,1001.79
2023-05-26T00:55:59.973Z,1001.80
2023-05-26T00:56:59.987Z,1001.77
2023-05-26T00:57:59.953Z,1001.70
2023-05-26T00:58:59.976Z,1001.70
2023-05-26T00:59:59.977Z,1001.82
2023-05-26T01:01:00.039Z,1001.80
2023-05-26T01:02:00.060Z,1001.84
2023-05-26T01:03:00.074Z,1001.85
2023-05-26T01:04:00.109Z,1001.79
2023-05-26T01:04:59.987Z,1001.83
2023-05-26T01:05:59.983Z,1001.74
2023-05-26T01:07:00.157Z,1001.75
2023-05-26T01:08:00.144Z,1001.81
2023-05-26T01:09:00.179Z,1001.70
2023-05-26T01:10:00.202Z,1001.72
2023-05-26T01:11:00.175Z,1001.71
2023-05-26T01:12:00.165Z,1001.67
2023-05-26T01:13:00.221Z,1001.68
2023-05-26T01:14:00.185Z,1001.70
2023-05-26T01:15:00.200Z,1001.73
2023-05-26T01:16:00.258Z,1001.64
2023-05-26T01:17:00.348Z,1001.76
2023-05-26T01:18:00.320Z,1001.71
2023-05-26T01:19:00.269Z,1001.73
2023-05-26T01:20:00.394Z,1001.76
2023-05-26T01:21:00.320Z,1001.71
2023-05-26T01:22:00.293Z,1001.74
2023-05-26T01:23:00.347Z,1001.70
2023-05-26T01:24:00.317Z,1001.76
2023-05-26T01:25:00.322Z,1001.74
2023-05-26T01:26:00.344Z,1001.76
2023-05-26T01:27:00.380Z,1001.78
2023-05-26T01:28:00.356Z,1001.78
2023-05-26T01:29:00.403Z,1001.76
2023-05-26T01:30:00.407Z,1001.73
2023-05-26T01:31:00.441Z,1001.72
2023-05-26T01:32:00.402Z,1001.75
2023-05-26T01:33:00.486Z,1001.78
2023-05-26T01:34:00.532Z,1001.79
2023-05-26T01:35:00.528Z,1001.84
2023-05-26T01:36:00.498Z,1001.79
2023-05-26T01:37:00.498Z,1001.79
2023-05-26T01:38:00.491Z,1001.80
2023-05-26T01:39:00.524Z,1001.83
2023-05-26T01:40:00.528Z,1001.81
2023-05-26T01:41:00.494Z,1001.77
2023-05-26T01:42:00.516Z,1001.73
2023-05-26T01:43:00.545Z,1001.76
2023-05-26T01:44:00.572Z,1001.81
2023-05-26T01:45:00.574Z,1001.79
2023-05-26T01:46:00.613Z,1001.78
2023-05-26T01:47:00.591Z,1001.80
2023-05-26T01:48:00.670Z,1001.81
2023-05-26T01:49:00.651Z,1001.83
2023-05-26T01:50:00.647Z,1001.80
2023-05-26T01:51:00.638Z,1001.93
2023-05-26T01:52:00.635Z,1001.87
2023-05-26T01:53:00.685Z,1001.82
2023-05-26T01:54:00.710Z,1001.82
2023-05-26T01:55:00.733Z,1001.80
2023-05-26T01:56:00.711Z,1001.88
2023-05-26T01:57:00.751Z,1001.81
2023-05-26T01:58:00.786Z,1001.86
2023-05-26T01:59:00.809Z,1001.85
2023-05-26T02:00:00.744Z,1001.82
2023-05-26T02:01:00.767Z,1001.81
2023-05-26T02:02:00.832Z,1001.82
2023-05-26T02:03:00.851Z,1001.82
2023-05-26T02:04:00.934Z,1001.88
2023-05-26T02:05:00.839Z,1001.82
2023-05-26T02:06:00.847Z,1001.81
2023-05-26T02:07:00.839Z,1001.83
2023-05-26T02:08:00.870Z,1001.84
2023-05-26T02:09:00.875Z,1001.86
2023-05-26T02:10:00.912Z,1001.85
2023-05-26T02:11:00.904Z,1001.84
2023-05-26T02:12:00.935Z,1001.81
2023-05-26T02:13:00.938Z,1001.83
2023-05-26T02:14:00.946Z,1001.85
2023-05-26T02:15:00.966Z,1001.79
2023-05-26T02:16:01.039Z,1001.83
2023-05-26T02:17:00.951Z,1001.79
2023-05-26T02:18:01.083Z,1001.84
2023-05-26T02:19:00.964Z,1001.81
2023-05-26T02:20:01.041Z,1001.84
2023-05-26T02:21:01.020Z,1001.81
2023-05-26T02:22:01.037Z,1001.83
2023-05-26T02:23:01.045Z,1001.78
2023-05-26T02:24:01.043Z,1001.84
2023-05-26T02:25:01.112Z,1001.82
2023-05-26T02:26:01.068Z,1001.77
2023-05-26T02:27:01.100Z,1001.78
2023-05-26T02:28:01.099Z,1001.89
2023-05-26T02:29:01.128Z,1001.83
2023-05-26T02:30:01.137Z,1001.85
2023-05-26T02:31:01.149Z,1001.88
2023-05-26T02:32:01.218Z,1001.87
2023-05-26T02:33:01.215Z,1001.85
2023-05-26T02:34:01.155Z,1001.83
2023-05-26T02:35:01.236Z,1001.87
2023-05-26T02:36:01.229Z,1001.86
2023-05-26T02:37:01.234Z,1001.82
2023-05-26T02:38:01.215Z,1001.78
2023-05-26T02:39:01.252Z,1001.83
2023-05-26T02:40:01.251Z,1001.79
2023-05-26T02:41:01.285Z,1001.82
2023-05-26T02:42:01.262Z,1001.77
2023-05-26T02:43:01.289Z,1001.81
2023-05-26T02:44:01.285Z,1001.74
2023-05-26T02:45:01.301Z,1001.74
2023-05-26T02:46:01.409Z,1001.76
2023-05-26T02:47:01.340Z,1001.83
2023-05-26T02:48:01.390Z,1001.83
2023-05-26T02:49:01.357Z,1001.73
2023-05-26T02:50:01.378Z,1001.83
2023-05-26T02:51:01.433Z,1001.79
2023-05-26T02:52:01.383Z,1001.76
2023-05-26T02:53:01.383Z,1001.85
2023-05-26T02:54:01.391Z,1001.88
2023-05-26T02:55:01.429Z,1001.80
2023-05-26T02:56:01.500Z,1001.88
2023-05-26T02:57:01.453Z,1001.77
2023-05-26T02:58:01.481Z,1001.88
2023-05-26T02:59:01.477Z,1001.88
2023-05-26T03:00:01.523Z,1001.84
2023-05-26T03:01:01.559Z,1001.89
2023-05-26T03:02:01.504Z,1001.83
2023-05-26T03:03:01.667Z,1001.84
2023-05-26T03:04:01.579Z,1001.83
2023-05-26T03:05:03.862Z,1001.89
2023-05-26T03:06:01.604Z,1001.85
2023-05-26T03:07:01.554Z,1001.86
2023-05-26T03:08:01.589Z,1001.93
2023-05-26T03:09:01.553Z,1001.84
2023-05-26T03:10:01.551Z,1001.89
2023-05-26T03:11:09.639Z,1001.91
2023-05-26T03:12:01.570Z,1001.93
2023-05-26T03:13:01.580Z,1001.85
2023-05-26T03:14:01.588Z,1001.84
2023-05-26T03:15:01.624Z,1001.93
2023-05-26T03:16:01.572Z,1001.90
2023-05-26T03:17:01.674Z,1001.89
2023-05-26T03:18:01.655Z,1001.94
2023-05-26T03:19:01.613Z,1001.99
2023-05-26T03:20:01.647Z,1001.93
2023-05-26T03:21:01.619Z,1001.94
2023-05-26T03:22:14.134Z,1001.95
2023-05-26T03:23:01.639Z,1001.91
2023-05-26T03:24:01.656Z,1001.90
2023-05-26T03:25:01.619Z,1001.93
2023-05-26T03:26:01.597Z,1001.90
2023-05-26T03:27:01.566Z,1001.92
2023-05-26T03:28:01.588Z,1001.82
2023-05-26T03:29:01.599Z,1001.87
2023-05-26T03:30:01.584Z,1001.85
2023-05-26T03:31:01.639Z,1001.87
2023-05-26T03:32:01.641Z,1001.81
2023-05-26T03:33:01.615Z,1001.88
2023-05-26T03:34:01.583Z,1001.90
2023-05-26T03:35:01.601Z,1001.82
2023-05-26T03:36:01.592Z,1001.83
2023-05-26T03:37:01.573Z,1001.86
2023-05-26T03:38:01.598Z,1001.94
2023-05-26T03:39:01.595Z,1001.86
2023-05-26T03:40:01.635Z,1001.91
2023-05-26T03:41:01.640Z,1001.94
2023-05-26T03:42:01.603Z,1001.92
2023-05-26T03:43:01.613Z,1001.91
2023-05-26T03:44:01.617Z,1001.94
2023-05-26T03:45:01.575Z,1001.86
2023-05-26T03:46:01.641Z,1001.83
2023-05-26T03:47:01.662Z,1001.92
2023-05-26T03:48:01.654Z,1001.82
2023-05-26T03:49:01.617Z,1001.88
2023-05-26T03:50:04.460Z,1001.88
2023-05-26T03:51:01.582Z,1001.88
2023-05-26T03:52:01.684Z,1001.81
2023-05-26T03:53:01.624Z,1001.84
2023-05-26T03:54:01.671Z,1001.93
2023-05-26T03:55:01.636Z,1001.98
2023-05-26T03:56:01.615Z,1001.82
2023-05-26T03:57:01.635Z,1001.84
2023-05-26T03:58:01.649Z,1001.83
2023-05-26T03:59:01.592Z,1001.83
2023-05-26T04:00:01.663Z,1001.86
2023-05-26T04:01:01.709Z,1001.90
2023-05-26T04:02:01.742Z,1001.82
2023-05-26T04:03:01.708Z,1001.87
2023-05-26T04:04:01.728Z,1001.80
2023-05-26T04:05:01.630Z,1001.79
2023-05-26T04:06:01.613Z,1001.86
2023-05-26T04:07:01.626Z,1001.82
2023-05-26T04:08:01.656Z,1001.90
2023-05-26T04:09:01.640Z,1001.91
2023-05-26T04:10:01.660Z,1001.90
2023-05-26T04:11:01.630Z,1001.90
2023-05-26T04:12:01.638Z,1001.86
2023-05-26T04:13:01.645Z,1001.97
2023-05-26T04:14:01.669Z,1001.87
2023-05-26T04:15:01.622Z,1001.94
2023-05-26T04:16:01.661Z,1001.86
2023-05-26T04:17:01.879Z,1001.92
2023-05-26T04:18:01.664Z,1001.93
2023-05-26T04:19:01.682Z,1001.91
2023-05-26T04:20:04.162Z,1001.95
2023-05-26T04:21:01.654Z,1001.88
2023-05-26T04:22:01.637Z,1001.85
2023-05-26T04:23:01.647Z,1001.90
2023-05-26T04:24:01.607Z,1001.85
2023-05-26T04:25:01.610Z,1001.84
2023-05-26T04:26:01.640Z,1001.86
2023-05-26T04:27:01.656Z,1001.82
2023-05-26T04:28:01.617Z,1001.86
2023-05-26T04:29:01.657Z,1001.83
2023-05-26T04:30:01.650Z,1001.88
2023-05-26T04:31:01.631Z,1001.92
2023-05-26T04:32:01.766Z,1001.91
2023-05-26T04:33:01.708Z,1001.88
2023-05-26T04:34:01.633Z,1001.94
2023-05-26T04:35:01.732Z,1001.97
2023-05-26T04:36:01.665Z,1001.94
2023-05-26T04:37:01.633Z,1001.98
2023-05-26T04:38:01.672Z,1002.02
2023-05-26T04:39:01.655Z,1001.99
2023-05-26T04:40:01.682Z,1002.01
2023-05-26T04:41:01.724Z,1001.94
2023-05-26T04:42:01.661Z,1002.02
2023-05-26T04:43:01.653Z,1002.06
2023-05-26T04:44:01.680Z,1001.85
2023-05-26T04:45:01.676Z,1001.93
2023-05-26T04:46:01.744Z,1001.97
2023-05-26T04:47:01.763Z,1001.90
2023-05-26T04:48:01.672Z,1001.92
2023-05-26T04:49:01.703Z,1001.90
2023-05-26T04:50:01.680Z,1001.88
2023-05-26T04:51:01.686Z,1001.92
2023-05-26T04:52:01.704Z,1001.96
2023-05-26T04:53:01.662Z,1001.95
2023-05-26T04:54:01.714Z,1001.91
2023-05-26T04:55:01.718Z,1001.98
2023-05-26T04:56:04.326Z,1002.01
2023-05-26T04:57:01.688Z,1001.97
2023-05-26T04:58:01.675Z,1001.94
2023-05-26T04:59:01.674Z,1001.95
2023-05-26T05:00:01.709Z,1001.99
2023-05-26T05:01:01.681Z,1002.02
2023-05-26T05:02:01.753Z,1002.00
2023-05-26T05:03:01.793Z,1002.01
2023-05-26T05:04:01.742Z,1002.03
2023-05-26T05:05:01.701Z,1001.98
2023-05-26T05:06:01.719Z,1001.95
2023-05-26T05:07:01.677Z,1002.07
2023-05-26T05:08:01.730Z,1001.99
2023-05-26T05:09:01.684Z,1002.01
2023-05-26T05:10:01.708Z,1002.07
2023-05-26T05:11:01.733Z,1002.03
2023-05-26T05:12:01.696Z,1002.01
2023-05-26T05:13:01.712Z,1002.12
2023-05-26T05:14:01.685Z,1002.09
2023-05-26T05:15:01.755Z,1002.07
2023-05-26T05:16:01.787Z,1002.14
2023-05-26T05:17:01.683Z,1002.05
2023-05-26T05:18:01.794Z,1002.09
2023-05-26T05:19:01.722Z,1002.12
2023-05-26T05:20:14.213Z,1002.11
2023-05-26T05:21:01.821Z,1002.14
2023-05-26T05:22:01.731Z,1002.10
2023-05-26T05:23:01.716Z,1002.11
2023-05-26T05:24:01.713Z,1002.12
2023-05-26T05:25:01.707Z,1002.14
2023-05-26T05:26:01.721Z,1002.16
2023-05-26T05:27:01.699Z,1002.10
2023-05-26T05:28:01.699Z,1002.16
2023-05-26T05:29:01.688Z,1002.12
2023-05-26T05:30:01.716Z,1002.17
2023-05-26T05:31:01.693Z,1002.18
2023-05-26T05:32:01.721Z,1002.22
2023-05-26T05:33:01.865Z,1002.22
2023-05-26T05:34:01.721Z,1002.26
2023-05-26T05:35:01.772Z,1002.31
2023-05-26T05:36:01.709Z,1002.27
2023-05-26T05:37:01.732Z,1002.28
2023-05-26T05:38:01.712Z,1002.33
2023-05-26T05:39:01.713Z,1002.28
2023-05-26T05:40:01.803Z,1002.34
2023-05-26T05:41:01.723Z,1002.28
2023-05-26T05:42:01.752Z,1002.33
2023-05-26T05:43:01.694Z,1002.38
2023-05-26T05:44:01.735Z,1002.35
2023-05-26T05:45:03.423Z,1002.37
2023-05-26T05:46:01.727Z,1002.32
2023-05-26T05:47:01.731Z,1002.39
2023-05-26T05:48:01.782Z,1002.35
2023-05-26T05:49:01.715Z,1002.36
2023-05-26T05:50:01.717Z,1002.37
2023-05-26T05:51:01.770Z,1002.38
2023-05-26T05:52:01.726Z,1002.34
2023-05-26T05:53:01.736Z,1002.36
2023-05-26T05:54:01.703Z,1002.31
2023-05-26T05:55:01.752Z,1002.33
2023-05-26T05:56:04.362Z,1002.32
2023-05-26T05:57:01.771Z,1002.38
2023-05-26T05:58:01.716Z,1002.35
2023-05-26T05:59:01.761Z,1002.38
2023-05-26T06:00:01.870Z,1002.37
2023-05-26T06:01:01.751Z,1002.35
2023-05-26T06:02:01.779Z,1002.44
2023-05-26T06:03:01.854Z,1002.39
2023-05-26T06:04:01.772Z,1002.48
2023-05-26T06:05:03.664Z,1002.51
2023-05-26T06:06:01.905Z,1002.42
2023-05-26T06:07:01.737Z,1002.47
2023-05-26T06:08:01.723Z,1002.50
2023-05-26T06:09:01.751Z,1002.48
2023-05-26T06:10:01.785Z,1002.50
2023-05-26T06:11:01.729Z,1002.52
2023-05-26T06:12:01.746Z,1002.58
2023-05-26T06:13:01.771Z,1002.51
2023-05-26T06:14:01.737Z,1002.54
2023-05-26T06:15:01.753Z,1002.59
2023-05-26T06:16:01.802Z,1002.61
2023-05-26T06:17:01.831Z,1002.61
2023-05-26T06:18:01.997Z,1002.65
2023-05-26T06:19:01.746Z,1002.64
2023-05-26T06:20:01.824Z,1002.65
2023-05-26T06:21:01.829Z,1002.62
2023-05-26T06:22:01.750Z,1002.64
2023-05-26T06:23:01.784Z,1002.61
2023-05-26T06:24:01.772Z,1002.66
2023-05-26T06:25:01.745Z,1002.69
2023-05-26T06:26:01.747Z,1002.73
2023-05-26T06:27:01.771Z,1002.83
2023-05-26T06:28:01.761Z,1002.74
2023-05-26T06:29:01.771Z,1002.72
2023-05-26T06:30:01.768Z,1002.73
2023-05-26T06:31:01.816Z,1002.76
2023-05-26T06:32:01.747Z,1002.78
2023-05-26T06:33:01.857Z,1002.71
2023-05-26T06:34:01.905Z,1002.80
2023-05-26T06:35:01.816Z,1002.83
2023-05-26T06:36:01.901Z,1002.83
2023-05-26T06:37:01.762Z,1002.72
2023-05-26T06:38:01.774Z,1002.73
2023-05-26T06:39:01.783Z,1002.72
2023-05-26T06:40:01.773Z,1002.68
2023-05-26T06:41:01.772Z,1002.74
2023-05-26T06:42:01.785Z,1002.68
2023-05-26T06:43:01.810Z,1002.76
2023-05-26T06:44:01.794Z,1002.71
2023-05-26T06:45:01.865Z,1002.66
2023-05-26T06:46:01.870Z,1002.73
2023-05-26T06:47:01.888Z,1002.67
2023-05-26T06:48:01.896Z,1002.76
2023-05-26T06:49:01.931Z,1002.66
2023-05-26T06:50:01.869Z,1002.79
2023-05-26T06:51:01.900Z,1002.64
2023-05-26T06:52:01.917Z,1002.68
2023-05-26T06:53:01.918Z,1002.67
2023-05-26T06:54:01.958Z,1002.74
2023-05-26T06:55:01.951Z,1002.66
2023-05-26T06:56:01.972Z,1002.78
2023-05-26T06:57:01.935Z,1002.70
2023-05-26T06:58:02.053Z,1002.76
2023-05-26T06:59:02.015Z,1002.69
2023-05-26T07:00:02.043Z,1002.77
2023-05-26T07:01:02.044Z,1002.74
2023-05-26T07:02:02.121Z,1002.70
2023-05-26T07:03:02.101Z,1002.71
2023-05-26T07:04:02.049Z,1002.70
2023-05-26T07:05:02.056Z,1002.70
2023-05-26T07:06:02.169Z,1002.70
2023-05-26T07:07:02.241Z,1002.71
2023-05-26T07:08:02.092Z,1002.71
2023-05-26T07:09:02.114Z,1002.74
2023-05-26T07:10:02.123Z,1002.72
2023-05-26T07:12:02.173Z,1002.63
2023-05-26T07:13:02.143Z,1002.69
2023-05-26T07:14:02.164Z,1002.60
2023-05-26T07:15:02.174Z,1002.61
2023-05-26T07:16:02.234Z,1002.58
2023-05-26T07:17:02.159Z,1002.59
2023-05-26T07:18:02.191Z,1002.66
2023-05-26T07:19:02.168Z,1002.64
2023-05-26T07:20:02.180Z,1002.63
2023-05-26T07:21:02.215Z,1002.72
2023-05-26T07:22:02.162Z,1002.62
2023-05-26T07:23:02.210Z,1002.68
2023-05-26T07:24:02.178Z,1002.63
2023-05-26T07:25:02.166Z,1002.70
2023-05-26T07:26:02.197Z,1002.73
2023-05-26T07:27:02.186Z,1002.69
2023-05-26T07:28:02.230Z,1002.67
2023-05-26T07:29:02.201Z,1002.71
2023-05-26T07:30:02.180Z,1002.70
2023-05-26T07:31:02.190Z,1002.67
2023-05-26T07:32:02.271Z,1002.61
2023-05-26T07:33:02.212Z,1002.60
2023-05-26T07:34:02.180Z,1002.60
2023-05-26T07:35:02.179Z,1002.54
2023-05-26T07:36:02.188Z,1002.53
2023-05-26T07:37:02.203Z,1002.50
2023-05-26T07:38:02.175Z,1002.58
2023-05-26T07:39:02.268Z,1002.45
2023-05-26T07:40:02.175Z,1002.46
2023-05-26T07:41:02.237Z,1002.44
2023-05-26T07:42:02.198Z,1002.39
2023-05-26T07:43:02.220Z,1002.42
2023-05-26T07:44:02.180Z,1002.44
2023-05-26T07:45:02.219Z,1002.44
2023-05-26T07:46:02.256Z,1002.43
2023-05-26T07:47:02.208Z,1002.49
2023-05-26T07:48:02.211Z,1002.45
2023-05-26T07:49:02.204Z,1002.46
2023-05-26T07:50:02.200Z,1002.48
2023-05-26T07:51:02.213Z,1002.42
2023-05-26T07:52:02.214Z,1002.45
2023-05-26T07:53:02.189Z,1002.44
2023-05-26T07:54:02.195Z,1002.41
2023-05-26T07:55:02.206Z,1002.39
2023-05-26T07:56:02.204Z,1002.46
2023-05-26T07:57:02.252Z,1002.43
2023-05-26T07:58:02.222Z,1002.33
2023-05-26T07:59:02.213Z,1002.39
2023-05-26T08:00:02.216Z,1002.41
2023-05-26T08:01:02.192Z,1002.47
2023-05-26T08:02:02.252Z,1002.48
2023-05-26T08:03:02.340Z,1002.42
2023-05-26T08:04:02.205Z,1002.44
2023-05-26T08:05:02.227Z,1002.41
2023-05-26T08:06:10.528Z,1002.48
2023-05-26T08:07:02.259Z,1002.39
2023-05-26T08:08:02.225Z,1002.44
2023-05-26T08:09:02.255Z,1002.36
2023-05-26T08:10:02.211Z,1002.37
2023-05-26T08:11:02.246Z,1002.34
2023-05-26T08:12:02.224Z,1002.32
2023-05-26T08:13:02.240Z,1002.27
2023-05-26T08:14:02.204Z,1002.36
2023-05-26T08:15:02.212Z,1002.41
2023-05-26T08:16:02.272Z,1002.43
2023-05-26T08:17:02.253Z,1002.41
2023-05-26T08:18:02.239Z,1002.29
2023-05-26T08:19:02.243Z,1002.46
2023-05-26T08:20:02.276Z,1002.32
2023-05-26T08:21:02.246Z,1002.32
2023-05-26T08:22:02.248Z,1002.37
2023-05-26T08:23:02.265Z,1002.30
2023-05-26T08:24:02.274Z,1002.35
2023-05-26T08:25:02.292Z,1002.31
2023-05-26T08:26:04.470Z,1002.36
2023-05-26T08:27:02.263Z,1002.35
2023-05-26T08:28:02.265Z,1002.31
2023-05-26T08:29:02.269Z,1002.39
2023-05-26T08:30:02.305Z,1002.41
2023-05-26T08:31:02.305Z,1002.29
2023-05-26T08:32:02.291Z,1002.41
2023-05-26T08:33:02.268Z,1002.37
2023-05-26T08:34:02.297Z,1002.43
2023-05-26T08:35:02.248Z,1002.35
2023-05-26T08:36:02.255Z,1002.43
2023-05-26T08:37:02.510Z,1002.44
2023-05-26T08:38:02.274Z,1002.40
2023-05-26T08:39:02.266Z,1002.40
2023-05-26T08:40:02.275Z,1002.42
2023-05-26T08:41:02.289Z,1002.50
2023-05-26T08:42:02.270Z,1002.43
2023-05-26T08:43:02.272Z,1002.40
2023-05-26T08:44:07.472Z,1002.35
2023-05-26T08:45:02.312Z,1002.41
2023-05-26T08:46:02.298Z,1002.47
2023-05-26T08:47:02.304Z,1002.40
2023-05-26T08:48:02.353Z,1002.38
2023-05-26T08:49:02.286Z,1002.42
2023-05-26T08:50:02.282Z,1002.41
2023-05-26T08:51:02.309Z,1002.31
2023-05-26T08:52:02.295Z,1002.36
2023-05-26T08:53:06.527Z,1002.36
2023-05-26T08:54:02.316Z,1002.33
2023-05-26T08:55:02.308Z,1002.40
2023-05-26T08:56:02.279Z,1002.41
2023-05-26T08:57:02.295Z,1002.46
2023-05-26T08:58:02.331Z,1002.34
2023-05-26T08:59:02.277Z,1002.24
2023-05-26T09:00:02.310Z,1002.36
2023-05-26T09:01:02.397Z,1002.30
2023-05-26T09:02:02.335Z,1002.22
2023-05-26T09:03:02.328Z,1002.21
2023-05-26T09:04:02.324Z,1002.31
2023-05-26T09:05:02.300Z,1002.27
2023-05-26T09:06:02.326Z,1002.20
2023-05-26T09:08:02.357Z,1002.24
2023-05-26T09:09:02.343Z,1002.23
2023-05-26T09:10:02.350Z,1002.30
2023-05-26T09:11:02.326Z,1002.27
2023-05-26T09:12:02.302Z,1002.26
2023-05-26T09:13:02.370Z,1002.21
2023-05-26T09:14:02.329Z,1002.24
2023-05-26T09:15:02.325Z,1002.28
2023-05-26T09:16:09.928Z,1002.31
2023-05-26T09:17:02.365Z,1002.24
2023-05-26T09:18:02.325Z,1002.28
2023-05-26T09:19:02.320Z,1002.32
2023-05-26T09:20:02.410Z,1002.33
2023-05-26T09:21:02.359Z,1002.29
2023-05-26T09:22:02.351Z,1002.31
2023-05-26T09:23:02.318Z,1002.36
2023-05-26T09:24:02.377Z,1002.32
2023-05-26T09:25:02.379Z,1002.41
2023-05-26T09:26:02.359Z,1002.39
2023-05-26T09:27:02.368Z,1002.39
2023-05-26T09:28:02.383Z,1002.41
2023-05-26T09:29:02.356Z,1002.46
2023-05-26T09:30:02.338Z,1002.38
2023-05-26T09:31:02.393Z,1002.41
2023-05-26T09:32:02.365Z,1002.40
2023-05-26T09:33:02.400Z,1002.38
2023-05-26T09:34:02.373Z,1002.38
2023-05-26T09:35:02.437Z,1002.43
2023-05-26T09:36:02.508Z,1002.39
2023-05-26T09:37:02.364Z,1002.35
2023-05-26T09:38:02.353Z,1002.39
2023-05-26T09:39:02.372Z,1002.44
2023-05-26T09:40:02.422Z,1002.39
2023-05-26T09:42:02.364Z,1002.42
2023-05-26T09:43:02.373Z,1002.44
2023-05-26T09:44:02.382Z,1002.37
2023-05-26T09:45:02.396Z,1002.45
2023-05-26T09:46:02.435Z,1002.51
2023-05-26T09:47:02.450Z,1002.51
2023-05-26T09:48:02.440Z,1002.52
2023-05-26T09:49:02.367Z,1002.45
2023-05-26T09:50:02.399Z,1002.47
2023-05-26T09:51:02.429Z,1002.48
2023-05-26T09:52:13.224Z,1002.42
2023-05-26T09:53:02.412Z,1002.51
2023-05-26T09:54:02.402Z,1002.47
2023-05-26T09:55:02.383Z,1002.44
2023-05-26T09:56:02.386Z,1002.42
2023-05-26T09:57:02.405Z,1002.47
2023-05-26T09:58:02.415Z,1002.42
2023-05-26T09:59:02.401Z,1002.35
2023-05-26T10:00:02.407Z,1002.32
2023-05-26T10:01:02.382Z,1002.30
2023-05-26T10:02:02.471Z,1002.30
2023-05-26T10:03:02.455Z,1002.36
2023-05-26T10:04:02.438Z,1002.35
2023-05-26T10:05:02.433Z,1002.33
2023-05-26T10:06:02.535Z,1002.35
2023-05-26T10:07:02.407Z,1002.24
2023-05-26T10:08:02.403Z,1002.28
2023-05-26T10:09:02.458Z,1002.23
2023-05-26T10:10:02.472Z,1002.20
2023-05-26T10:11:02.413Z,1002.23
2023-05-26T10:12:02.429Z,1002.20
2023-05-26T10:13:02.428Z,1002.20
2023-05-26T10:14:02.446Z,1002.21
2023-05-26T10:15:02.416Z,1002.21
2023-05-26T10:16:02.438Z,1002.22
2023-05-26T10:17:02.490Z,1002.19
2023-05-26T10:18:02.477Z,1002.24
2023-05-26T10:19:02.426Z,1002.25
2023-05-26T10:20:02.533Z,1002.22
2023-05-26T10:21:02.464Z,1002.25
2023-05-26T10:22:02.452Z,1002.28
2023-05-26T10:23:02.539Z,1002.26
2023-05-26T10:24:02.459Z,1002.20
2023-05-26T10:25:02.476Z,1002.18
2023-05-26T10:26:02.440Z,1002.16
2023-05-26T10:27:02.438Z,1002.24
2023-05-26T10:28:02.443Z,1002.25
2023-05-26T10:29:02.440Z,1002.28
2023-05-26T10:30:02.441Z,1002.16
2023-05-26T10:31:02.449Z,1002.29
2023-05-26T10:32:02.513Z,1002.14
2023-05-26T10:33:02.463Z,1002.19
2023-05-26T10:34:02.469Z,1002.18
2023-05-26T10:35:02.472Z,1002.20
2023-05-26T10:36:02.580Z,1002.18
2023-05-26T10:37:02.458Z,1002.19
2023-05-26T10:38:02.478Z,1002.12
2023-05-26T10:39:02.448Z,1002.11
2023-05-26T10:40:02.470Z,1002.18
2023-05-26T10:41:02.523Z,1002.11
2023-05-26T10:42:02.461Z,1002.09
2023-05-26T10:43:02.486Z,1002.09
2023-05-26T10:44:02.501Z,1002.11
2023-05-26T10:45:02.500Z,1002.08
2023-05-26T10:46:02.612Z,1002.13
2023-05-26T10:47:02.507Z,1002.10
2023-05-26T10:48:02.540Z,1002.16
2023-05-26T10:49:02.450Z,1002.09
2023-05-26T10:50:02.479Z,1002.08
2023-05-26T10:51:02.544Z,1002.12
2023-05-26T10:52:02.492Z,1002.18
2023-05-26T10:53:02.493Z,1002.26
2023-05-26T10:54:02.478Z,1002.14
2023-05-26T10:55:02.479Z,1002.14
2023-05-26T10:56:02.482Z,1002.12
2023-05-26T10:57:02.476Z,1002.12
2023-05-26T10:58:02.517Z,1002.23
2023-05-26T10:59:02.480Z,1002.09
2023-05-26T11:00:02.546Z,1002.18
2023-05-26T11:01:02.544Z,1002.15
2023-05-26T11:02:02.587Z,1002.07
2023-05-26T11:03:02.593Z,1002.19
2023-05-26T11:04:02.596Z,1002.05
2023-05-26T11:05:02.510Z,1002.13
2023-05-26T11:06:02.516Z,1002.10
2023-05-26T11:07:02.560Z,1002.17
2023-05-26T11:08:02.589Z,1002.16
2023-05-26T11:09:02.527Z,1002.23
2023-05-26T11:10:02.521Z,1002.09
2023-05-26T11:11:02.537Z,1002.10
2023-05-26T11:12:02.532Z,1002.06
2023-05-26T11:13:02.537Z,1002.11
2023-05-26T11:14:02.527Z,1002.13
2023-05-26T11:15:02.511Z,1002.21
2023-05-26T11:16:02.509Z,1002.25
2023-05-26T11:17:02.530Z,1002.17
2023-05-26T11:18:02.632Z,1002.22
2023-05-26T11:19:02.558Z,1002.17
2023-05-26T11:20:02.691Z,1002.13
2023-05-26T11:21:02.523Z,1002.17
2023-05-26T11:22:02.501Z,1002.14
2023-05-26T11:23:02.578Z,1002.15
2023-05-26T11:24:02.529Z,1002.01
2023-05-26T11:25:02.570Z,1002.17
2023-05-26T11:26:02.738Z,1002.06
2023-05-26T11:27:02.547Z,1002.07
2023-05-26T11:28:02.722Z,1002.13
2023-05-26T11:29:04.568Z,1002.12
2023-05-26T11:30:02.643Z,1002.11
2023-05-26T11:31:02.638Z,1002.10
2023-05-26T11:32:02.708Z,1002.05
2023-05-26T11:33:02.722Z,1002.02
2023-05-26T11:34:02.623Z,1002.06
2023-05-26T11:35:02.545Z,1002.07
2023-05-26T11:36:02.607Z,1001.99
2023-05-26T11:37:02.589Z,1002.09
2023-05-26T11:38:02.583Z,1002.01
2023-05-26T11:39:02.712Z,1002.01
2023-05-26T11:40:02.575Z,1002.06
2023-05-26T11:41:02.553Z,1002.00
2023-05-26T11:42:02.554Z,1002.10
2023-05-26T11:43:02.671Z,1001.99
2023-05-26T11:44:02.629Z,1001.99
2023-05-26T11:45:02.566Z,1002.01
2023-05-26T11:46:02.649Z,1002.13
2023-05-26T11:47:02.700Z,1001.97
2023-05-26T11:48:02.782Z,1002.03
2023-05-26T11:49:02.650Z,1001.96
2023-05-26T11:50:05.183Z,1002.04
2023-05-26T11:51:02.692Z,1001.94
2023-05-26T11:52:02.675Z,1002.00
2023-05-26T11:53:02.707Z,1002.04
2023-05-26T11:54:02.692Z,1002.18
2023-05-26T11:55:02.728Z,1002.09
2023-05-26T11:56:02.743Z,1002.07
2023-05-26T11:57:03.621Z,1002.13
2023-05-26T11:58:02.792Z,1002.05
2023-05-26T11:59:02.689Z,1002.05
2023-05-26T12:00:03.296Z,1002.06
2023-05-26T12:01:02.726Z,1001.94
2023-05-26T12:02:02.753Z,1002.02
2023-05-26T12:03:02.711Z,1002.05
2023-05-26T12:04:02.734Z,1002.08
2023-05-26T12:05:02.670Z,1002.04
2023-05-26T12:06:02.681Z,1002.01
2023-05-26T12:07:02.719Z,1002.03
2023-05-26T12:08:02.713Z,1001.94
2023-05-26T12:09:02.723Z,1002.00